Time,TemperatureF,DewpointF,PressureIn,WindDirection,WindDirectionDegrees,WindSpeedMPH,WindSpeedGustMPH,Humidity,HourlyPrecipIn,Conditions,Clouds,dailyrainin,SoftwareType,DateUTC
2013-01-01 00:02:00,57.0,53.0,30.10,ENE,76,2.0,5.0,86,0.00,,,0.01,,2013-01-01 06:02:00,
2013-01-01 00:12:00,57.0,53.0,30.10,ENE,76,2.0,5.0,86,0.00,,,0.01,,2013-01-01 06:12:00,
2013-01-01 00:22:00,56.0,52.0,30.10,ESE,115,5.0,7.0,86,0.00,,,0.01,,2013-01-01 06:22:00,
2013-01-01 00:32:00,57.0,53.0,30.09,East,98,6.0,10.0,86,0.00,,,0.01,,2013-01-01 06:32:00,
2013-01-01 00:42:00,57.0,53.0,30.09,East,98,6.0,10.0,86,0.00,,,0.01,,2013-01-01 06:42:00,
2013-01-01 00:52:00,60.0,56.0,30.09,SE,137,8.0,11.0,87,0.00,,,0.01,,2013-01-01 06:52:00,
2013-01-01 01:02:00,61.0,57.0,30.09,SE,141,9.0,11.0,87,0.00,,,0.01,,2013-01-01 07:02:00,
2013-01-01 01:12:00,60.0,56.0,30.08,SSE,151,7.0,9.0,87,0.00,,,0.01,,2013-01-01 07:12:00,
2013-01-01 01:22:00,60.0,56.0,30.08,SSE,151,7.0,9.0,87,0.00,,,0.01,,2013-01-01 07:22:00,
2013-01-01 01:32:00,61.0,57.0,30.07,SSE,157,10.0,13.0,86,0.00,,,0.01,,2013-01-01 07:32:00,
2013-01-01 01:42:00,61.0,57.0,30.07,SSE,157,10.0,13.0,86,0.00,,,0.01,,2013-01-01 07:42:00,
2013-01-01 01:52:00,61.0,57.0,30.07,SSE,153,11.0,13.0,86,0.00,,,0.01,,2013-01-01 07:52:00,
2013-01-01 02:02:00,61.0,57.0,30.06,SSE,150,11.0,14.0,86,0.00,,,0.01,,2013-01-01 08:02:00,
2013-01-01 02:12:00,61.0,57.0,30.06,SSE,150,11.0,14.0,86,0.00,,,0.01,,2013-01-01 08:12:00,
2013-01-01 02:22:00,61.0,57.0,30.07,SSE,153,10.0,13.0,86,0.00,,,0.01,,2013-01-01 08:22:00,
2013-01-01 02:32:00,61.0,57.0,30.06,SSE,147,11.0,15.0,86,0.00,,,0.01,,2013-01-01 08:32:00,
2013-01-01 02:42:00,61.0,57.0,30.06,SSE,147,11.0,15.0,86,0.00,,,0.01,,2013-01-01 08:42:00,
2013-01-01 02:53:00,61.0,57.0,30.06,SE,144,12.0,14.0,86,0.00,,,0.01,,2013-01-01 08:53:00,
2013-01-01 03:02:00,61.0,57.0,30.05,SE,143,10.0,12.0,86,0.00,,,0.01,,2013-01-01 09:02:00,
2013-01-01 03:12:00,61.0,57.0,30.05,SE,143,10.0,12.0,86,0.00,,,0.01,,2013-01-01 09:12:00,
2013-01-01 03:22:00,61.0,57.0,30.06,SE,143,10.0,13.0,86,0.00,,,0.01,,2013-01-01 09:22:00,
2013-01-01 03:32:00,61.0,57.0,30.05,SE,136,9.0,12.0,86,0.00,,,0.01,,2013-01-01 09:32:00,
2013-01-01 03:42:00,61.0,57.0,30.05,SE,136,9.0,12.0,86,0.00,,,0.01,,2013-01-01 09:42:00,
2013-01-01 03:52:00,61.0,57.0,30.03,SE,143,10.0,13.0,87,0.00,,,0.01,,2013-01-01 09:52:00,
2013-01-01 04:02:00,61.0,57.0,30.03,SE,140,12.0,14.0,86,0.00,,,0.01,,2013-01-01 10:02:00,
2013-01-01 04:12:00,61.0,57.0,30.03,SE,144,12.0,14.0,87,0.00,,,0.01,,2013-01-01 10:12:00,
2013-01-01 04:22:00,61.0,57.0,30.03,SE,144,12.0,14.0,87,0.00,,,0.01,,2013-01-01 10:22:00,
2013-01-01 04:33:00,61.0,57.0,30.03,SE,144,12.0,14.0,87,0.00,,,0.01,,2013-01-01 10:33:00,
2013-01-01 04:42:00,61.0,57.0,30.03,SE,144,12.0,14.0,87,0.00,,,0.01,,2013-01-01 10:42:00,
2013-01-01 04:52:00,60.0,56.0,30.02,SE,144,8.0,11.0,86,0.00,,,0.01,,2013-01-01 10:52:00,
2013-01-01 05:02:00,60.0,56.0,30.02,SSE,159,4.0,6.0,86,0.00,,,0.01,,2013-01-01 11:02:00,
2013-01-01 05:12:00,60.0,56.0,30.02,SSE,159,4.0,6.0,86,0.00,,,0.01,,2013-01-01 11:12:00,
2013-01-01 05:22:00,59.0,55.0,30.01,SSE,157,4.0,6.0,87,0.00,,,0.01,,2013-01-01 11:22:00,
2013-01-01 05:32:00,60.0,56.0,30.02,South,169,3.0,6.0,86,0.00,,,0.01,,2013-01-01 11:32:00,
2013-01-01 05:42:00,60.0,56.0,30.02,South,169,3.0,6.0,86,0.00,,,0.01,,2013-01-01 11:42:00,
2013-01-01 05:53:00,61.0,57.0,30.01,SSE,165,5.0,7.0,86,0.00,,,0.01,,2013-01-01 11:53:00,
2013-01-01 06:02:00,61.0,57.0,30.01,SSE,163,4.0,6.0,86,0.00,,,0.01,,2013-01-01 12:02:00,
2013-01-01 06:12:00,61.0,57.0,30.01,SSE,163,4.0,6.0,86,0.00,,,0.01,,2013-01-01 12:12:00,
2013-01-01 06:22:00,60.0,55.0,30.01,SSE,151,2.0,5.0,85,0.00,,,0.01,,2013-01-01 12:22:00,
2013-01-01 06:32:00,60.0,56.0,30.01,SSE,150,1.0,2.0,86,0.00,,,0.01,,2013-01-01 12:32:00,
2013-01-01 06:42:00,60.0,56.0,30.01,SSE,150,1.0,2.0,86,0.00,,,0.01,,2013-01-01 12:42:00,
2013-01-01 06:52:00,60.0,56.0,30.01,SSE,150,1.0,2.0,86,0.00,,,0.01,,2013-01-01 12:52:00,
2013-01-01 07:02:00,60.0,56.0,30.01,SSE,150,1.0,2.0,86,0.00,,,0.01,,2013-01-01 13:02:00,
2013-01-01 07:12:00,60.0,56.0,30.01,SSE,150,1.0,2.0,86,0.00,,,0.01,,2013-01-01 13:12:00,
2013-01-01 07:22:00,60.0,56.0,30.01,SSE,158,2.0,3.0,86,0.00,,,0.01,,2013-01-01 13:22:00,
2013-01-01 07:33:00,61.0,57.0,30.02,South,172,3.0,4.0,86,0.00,,,0.01,,2013-01-01 13:33:00,
2013-01-01 07:42:00,61.0,57.0,30.02,South,172,3.0,4.0,86,0.00,,,0.01,,2013-01-01 13:42:00,
2013-01-01 07:52:00,62.0,57.0,30.02,South,175,5.0,7.0,85,0.00,,,0.01,,2013-01-01 13:52:00,
2013-01-01 08:02:00,63.0,58.0,30.02,South,178,5.0,8.0,85,0.00,,,0.01,,2013-01-01 14:02:00,
2013-01-01 08:12:00,63.0,58.0,30.02,South,178,5.0,8.0,85,0.00,,,0.01,,2013-01-01 14:12:00,
2013-01-01 08:22:00,64.0,59.0,30.02,South,189,7.0,11.0,84,0.00,,,0.01,,2013-01-01 14:22:00,
2013-01-01 08:32:00,64.0,59.0,30.02,South,189,7.0,11.0,84,0.00,,,0.01,,2013-01-01 14:32:00,
2013-01-01 08:42:00,64.0,59.0,30.02,South,189,7.0,11.0,84,0.00,,,0.01,,2013-01-01 14:42:00,
2013-01-01 08:53:00,65.0,60.0,30.03,SSW,196,9.0,13.0,83,0.00,,,0.01,,2013-01-01 14:53:00,
2013-01-01 09:03:00,65.0,60.0,30.03,South,190,8.0,12.0,83,0.00,,,0.01,,2013-01-01 15:03:00,
2013-01-01 09:12:00,65.0,60.0,30.03,South,190,8.0,12.0,83,0.00,,,0.01,,2013-01-01 15:12:00,
2013-01-01 09:22:00,66.0,60.0,30.03,SSW,192,12.0,17.0,82,0.00,,,0.01,,2013-01-01 15:22:00,
2013-01-01 09:33:00,65.0,59.0,30.03,South,188,9.0,14.0,82,0.00,,,0.01,,2013-01-01 15:33:00,
2013-01-01 09:42:00,65.0,59.0,30.03,South,188,9.0,14.0,82,0.00,,,0.01,,2013-01-01 15:42:00,
2013-01-01 09:53:00,65.0,60.0,30.04,South,186,9.0,17.0,83,0.00,,,0.01,,2013-01-01 15:53:00,
2013-01-01 10:02:00,65.0,60.0,30.04,South,177,8.0,15.0,83,0.00,,,0.01,,2013-01-01 16:02:00,
2013-01-01 10:12:00,65.0,60.0,30.04,South,177,8.0,15.0,83,0.00,,,0.01,,2013-01-01 16:12:00,
2013-01-01 10:22:00,64.0,59.0,30.04,South,172,7.0,9.0,84,0.00,,,0.01,,2013-01-01 16:22:00,
2013-01-01 10:33:00,64.0,59.0,30.03,South,175,7.0,10.0,84,0.00,,,0.01,,2013-01-01 16:33:00,
2013-01-01 10:42:00,64.0,59.0,30.03,South,175,7.0,10.0,84,0.00,,,0.01,,2013-01-01 16:42:00,
2013-01-01 10:52:00,63.0,58.0,30.03,SSE,167,4.0,7.0,85,0.00,,,0.01,,2013-01-01 16:52:00,
2013-01-01 11:02:00,63.0,58.0,30.02,SSE,157,3.0,6.0,85,0.00,,,0.01,,2013-01-01 17:02:00,
2013-01-01 11:12:00,63.0,58.0,30.02,SSE,157,3.0,6.0,85,0.00,,,0.01,,2013-01-01 17:12:00,
2013-01-01 11:22:00,63.0,58.0,30.02,SSE,168,3.0,6.0,85,0.00,,,0.01,,2013-01-01 17:22:00,
2013-01-01 11:33:00,62.0,57.0,30.01,SSE,167,4.0,6.0,85,0.00,,,0.01,,2013-01-01 17:33:00,
2013-01-01 11:43:00,62.0,57.0,30.01,SSE,167,4.0,6.0,85,0.00,,,0.01,,2013-01-01 17:43:00,
2013-01-01 11:52:00,63.0,59.0,30.01,South,173,4.0,5.0,86,0.00,,,0.01,,2013-01-01 17:52:00,
2013-01-01 12:03:00,64.0,60.0,30.00,South,179,5.0,7.0,86,0.00,,,0.01,,2013-01-01 18:03:00,
2013-01-01 12:12:00,64.0,60.0,30.00,South,179,5.0,7.0,86,0.00,,,0.01,,2013-01-01 18:12:00,
2013-01-01 12:22:00,65.0,60.0,30.00,South,173,4.0,8.0,85,0.00,,,0.01,,2013-01-01 18:22:00,
2013-01-01 12:33:00,65.0,60.0,29.99,South,176,4.0,7.0,85,0.00,,,0.01,,2013-01-01 18:33:00,
2013-01-01 12:42:00,65.0,60.0,29.99,South,176,4.0,7.0,85,0.00,,,0.01,,2013-01-01 18:42:00,
2013-01-01 12:52:00,65.0,60.0,29.99,South,176,4.0,7.0,85,0.00,,,0.01,,2013-01-01 18:52:00,
2013-01-01 13:02:00,65.0,60.0,29.98,SSE,168,4.0,7.0,85,0.00,,,0.01,,2013-01-01 19:02:00,
2013-01-01 13:12:00,65.0,60.0,29.98,SSE,168,4.0,7.0,85,0.00,,,0.01,,2013-01-01 19:12:00,
2013-01-01 13:22:00,64.0,59.0,29.97,SSE,158,4.0,6.0,85,0.00,,,0.01,,2013-01-01 19:22:00,
2013-01-01 13:32:00,64.0,60.0,29.96,SSE,160,4.0,6.0,86,0.00,,,0.01,,2013-01-01 19:32:00,
2013-01-01 13:42:00,64.0,60.0,29.96,SSE,160,4.0,6.0,86,0.00,,,0.01,,2013-01-01 19:42:00,
2013-01-01 13:52:00,64.0,60.0,29.96,SSE,153,4.0,6.0,86,0.00,,,0.01,,2013-01-01 19:52:00,
2013-01-01 14:02:00,64.0,60.0,29.96,SSE,153,4.0,6.0,86,0.00,,,0.01,,2013-01-01 20:02:00,
2013-01-01 14:12:00,64.0,60.0,29.96,SSE,153,4.0,6.0,86,0.00,,,0.01,,2013-01-01 20:12:00,
2013-01-01 14:23:00,64.0,60.0,29.95,SE,146,3.0,5.0,86,0.00,,,0.01,,2013-01-01 20:23:00,
2013-01-01 14:32:00,64.0,60.0,29.94,SE,143,1.0,3.0,86,0.00,,,0.01,,2013-01-01 20:32:00,
2013-01-01 14:42:00,64.0,60.0,29.94,SE,143,1.0,3.0,86,0.00,,,0.01,,2013-01-01 20:42:00,
2013-01-01 14:52:00,64.0,60.0,29.94,SE,143,1.0,3.0,86,0.00,,,0.01,,2013-01-01 20:52:00,
2013-01-01 15:03:00,64.0,60.0,29.94,SE,145,4.0,6.0,86,0.00,,,0.01,,2013-01-01 21:03:00,
2013-01-01 15:12:00,64.0,60.0,29.94,SE,145,4.0,6.0,86,0.00,,,0.01,,2013-01-01 21:12:00,
2013-01-01 15:22:00,64.0,60.0,29.94,SE,145,4.0,6.0,86,0.00,,,0.01,,2013-01-01 21:22:00,
2013-01-01 15:33:00,64.0,60.0,29.94,SSE,154,4.0,5.0,86,0.00,,,0.01,,2013-01-01 21:33:00,
2013-01-01 15:42:00,64.0,60.0,29.94,SSE,154,4.0,5.0,86,0.00,,,0.01,,2013-01-01 21:42:00,
2013-01-01 15:53:00,63.0,59.0,29.94,SSE,158,3.0,6.0,86,0.00,,,0.01,,2013-01-01 21:53:00,
2013-01-01 16:02:00,64.0,60.0,29.94,SSE,156,4.0,6.0,86,0.00,,,0.01,,2013-01-01 22:02:00,
2013-01-01 16:12:00,64.0,60.0,29.94,SSE,156,4.0,6.0,86,0.00,,,0.01,,2013-01-01 22:12:00,
2013-01-01 16:22:00,64.0,60.0,29.94,SSE,159,5.0,6.0,86,0.00,,,0.01,,2013-01-01 22:22:00,
2013-01-01 16:33:00,63.0,59.0,29.94,SSE,155,4.0,7.0,86,0.00,,,0.01,,2013-01-01 22:33:00,
2013-01-01 16:42:00,63.0,59.0,29.94,SSE,155,4.0,7.0,86,0.00,,,0.01,,2013-01-01 22:42:00,
2013-01-01 16:52:00,63.0,59.0,29.94,SSE,167,3.0,5.0,87,0.00,,,0.01,,2013-01-01 22:52:00,
2013-01-01 17:02:00,64.0,60.0,29.95,South,178,2.0,6.0,87,0.00,,,0.01,,2013-01-01 23:02:00,
2013-01-01 17:12:00,64.0,60.0,29.95,South,178,2.0,6.0,87,0.00,,,0.01,,2013-01-01 23:12:00,
2013-01-01 17:22:00,65.0,61.0,29.95,SSW,198,5.0,7.0,87,0.00,,,0.01,,2013-01-01 23:22:00,
2013-01-01 17:32:00,66.0,62.0,29.95,South,190,6.0,8.0,86,0.00,,,0.01,,2013-01-01 23:32:00,
2013-01-01 17:42:00,66.0,62.0,29.95,South,190,6.0,8.0,86,0.00,,,0.01,,2013-01-01 23:42:00,
2013-01-01 17:52:00,65.0,61.0,29.94,South,180,6.0,11.0,86,0.00,,,0.01,,2013-01-01 23:52:00,
2013-01-01 18:02:00,65.0,61.0,29.94,South,181,5.0,9.0,87,0.00,,,0.01,,2013-01-02 00:02:00,
2013-01-01 18:12:00,65.0,61.0,29.94,South,181,5.0,9.0,87,0.00,,,0.01,,2013-01-02 00:12:00,
2013-01-01 18:22:00,66.0,62.0,29.94,South,188,9.0,13.0,87,0.00,,,0.01,,2013-01-02 00:22:00,
2013-01-01 18:32:00,66.0,62.0,29.94,SSW,197,8.0,13.0,87,0.00,,,0.01,,2013-01-02 00:32:00,
2013-01-01 18:42:00,66.0,62.0,29.94,SSW,197,8.0,13.0,87,0.00,,,0.01,,2013-01-02 00:42:00,
2013-01-01 18:52:00,66.0,62.0,29.94,SSW,197,8.0,13.0,87,0.00,,,0.01,,2013-01-02 00:52:00,
2013-01-01 19:02:00,66.0,62.0,29.94,South,186,7.0,12.0,87,0.00,,,0.01,,2013-01-02 01:02:00,
2013-01-01 19:12:00,66.0,62.0,29.94,South,186,7.0,12.0,87,0.00,,,0.01,,2013-01-02 01:12:00,
2013-01-01 19:22:00,66.0,62.0,29.95,South,186,8.0,13.0,87,0.00,,,0.01,,2013-01-02 01:22:00,
2013-01-01 19:32:00,66.0,62.0,29.95,South,188,9.0,15.0,87,0.00,,,0.01,,2013-01-02 01:32:00,
2013-01-01 19:42:00,66.0,62.0,29.95,South,188,9.0,15.0,87,0.00,,,0.01,,2013-01-02 01:42:00,
2013-01-01 19:52:00,66.0,62.0,29.95,SSW,192,8.0,12.0,87,0.00,,,0.01,,2013-01-02 01:52:00,
2013-01-01 20:02:00,66.0,62.0,29.95,SSW,193,9.0,13.0,87,0.00,,,0.01,,2013-01-02 02:02:00,
2013-01-01 20:12:00,66.0,62.0,29.95,SSW,193,9.0,13.0,87,0.00,,,0.01,,2013-01-02 02:12:00,
2013-01-01 20:22:00,66.0,62.0,29.95,SSW,199,8.0,12.0,87,0.00,,,0.01,,2013-01-02 02:22:00,
2013-01-01 20:32:00,66.0,62.0,29.95,SSW,207,9.0,13.0,87,0.00,,,0.01,,2013-01-02 02:32:00,
2013-01-01 20:42:00,66.0,62.0,29.95,SSW,207,9.0,13.0,87,0.00,,,0.01,,2013-01-02 02:42:00,
2013-01-01 20:52:00,66.0,62.0,29.95,South,190,8.0,13.0,87,0.00,,,0.00,,2013-01-02 02:52:00,
2013-01-01 21:02:00,66.0,62.0,29.95,SSW,205,7.0,11.0,87,0.00,,,0.00,,2013-01-02 03:02:00,
2013-01-01 21:12:00,66.0,62.0,29.95,SSW,205,7.0,11.0,87,0.00,,,0.00,,2013-01-02 03:12:00,
2013-01-01 21:22:00,66.0,62.0,29.95,SSW,192,9.0,15.0,87,0.00,,,0.00,,2013-01-02 03:22:00,
2013-01-01 21:32:00,66.0,62.0,29.95,SSW,203,7.0,10.0,87,0.00,,,0.00,,2013-01-02 03:32:00,
2013-01-01 21:42:00,66.0,62.0,29.95,SSW,203,7.0,10.0,87,0.00,,,0.00,,2013-01-02 03:42:00,
2013-01-01 21:52:00,66.0,62.0,29.95,SSW,207,8.0,13.0,87,0.00,,,0.00,,2013-01-02 03:52:00,
2013-01-01 22:02:00,66.0,62.0,29.95,South,185,9.0,12.0,87,0.00,,,0.00,,2013-01-02 04:02:00,
2013-01-01 22:12:00,66.0,62.0,29.95,South,185,9.0,12.0,87,0.00,,,0.00,,2013-01-02 04:12:00,
2013-01-01 22:22:00,66.0,62.0,29.95,SSW,200,7.0,10.0,87,0.00,,,0.00,,2013-01-02 04:22:00,
2013-01-01 22:32:00,67.0,63.0,29.94,SSW,201,8.0,11.0,87,0.00,,,0.00,,2013-01-02 04:32:00,
2013-01-01 22:42:00,67.0,63.0,29.94,SSW,201,8.0,11.0,87,0.00,,,0.00,,2013-01-02 04:42:00,
2013-01-01 22:52:00,67.0,63.0,29.94,SSW,201,8.0,11.0,87,0.00,,,0.00,,2013-01-02 04:52:00,
2013-01-01 23:03:00,67.0,63.0,29.95,SSW,209,8.0,13.0,88,0.00,,,0.00,,2013-01-02 05:03:00,
2013-01-01 23:12:00,67.0,63.0,29.95,SSW,209,8.0,13.0,88,0.00,,,0.00,,2013-01-02 05:12:00,
2013-01-01 23:22:00,67.0,63.0,29.95,SW,219,8.0,13.0,88,0.00,,,0.00,,2013-01-02 05:22:00,
2013-01-01 23:33:00,67.0,63.0,29.94,SSW,206,7.0,11.0,87,0.00,,,0.00,,2013-01-02 05:33:00,
2013-01-01 23:42:00,67.0,63.0,29.94,SSW,206,7.0,11.0,87,0.00,,,0.00,,2013-01-02 05:42:00,
2013-01-01 23:52:00,67.0,63.0,29.94,SSW,212,8.0,11.0,88,0.00,,,0.00,,2013-01-02 05:52:00,